Time;durP1;ratioP1;P1;durP2;ratioP2;P2;SDS_P1;SDS_P2;PMS_P1;PMS_P2;Temp;Humidity;BMP_temperature;BMP_pressure;BME280_temperature;BME280_humidity;BME280_pressure;Samples;Min_cycle;Max_cycle;Signal;HPM_P1;HPM_P2
2023/09/29 00:01:13;;;;;;;4.63;4.30;;;;;;;;;;10357294;28;20227;-78
2023/09/29 00:06:13;;;;;;;4.82;4.50;;;;;;;;;;10353764;28;20745;-78
2023/09/29 00:11:14;;;;;;;5.57;4.45;;;;;;;;;;10348401;28;20282;-79
2023/09/29 00:16:15;;;;;;;4.60;4.20;;;;;;;;;;10357411;28;20211;-79
2023/09/29 00:21:16;;;;;;;4.43;4.03;;;;;;;;;;10355397;28;20223;-78
2023/09/29 00:26:19;;;;;;;4.53;4.22;;;;;;;;;;10372742;28;20232;-79
2023/09/29 00:31:22;;;;;;;4.57;4.18;;;;;;;;;;10341141;28;20251;-78
2023/09/29 00:36:23;;;;;;;4.60;4.07;;;;;;;;;;10346570;28;20269;-79
2023/09/29 00:41:24;;;;;;;10.68;4.25;;;;;;;;;;10356708;28;20216;-79
2023/09/29 00:46:26;;;;;;;4.93;4.55;;;;;;;;;;10358331;28;20231;-78
2023/09/29 00:51:27;;;;;;;5.15;4.57;;;;;;;;;;10348039;28;20218;-78
2023/09/29 00:56:28;;;;;;;4.80;4.43;;;;;;;;;;10353282;28;20282;-79
2023/09/29 01:01:29;;;;;;;5.30;4.80;;;;;;;;;;10350481;28;20215;-78
2023/09/29 01:06:30;;;;;;;4.70;4.40;;;;;;;;;;10350385;28;20771;-79
2023/09/29 01:11:42;;;;;;;5.15;4.85;;;;;;;;;;10353345;28;20881;-78
2023/09/29 01:16:44;;;;;;;5.80;4.97;;;;;;;;;;10335327;28;20579;-79
2023/09/29 01:21:46;;;;;;;7.63;5.43;;;;;;;;;;10347273;28;20576;-80
2023/09/29 01:26:47;;;;;;;7.05;4.97;;;;;;;;;;10363162;28;20223;-79
2023/09/29 01:31:49;;;;;;;5.68;5.18;;;;;;;;;;10331022;28;20230;-79
2023/09/29 01:36:50;;;;;;;4.60;4.13;;;;;;;;;;10352100;28;20215;-80
2023/09/29 01:41:52;;;;;;;5.95;5.00;;;;;;;;;;10354403;28;20939;-80
2023/09/29 01:46:53;;;;;;;4.75;4.45;;;;;;;;;;10350151;28;20248;-79
2023/09/29 01:51:55;;;;;;;5.22;4.78;;;;;;;;;;10348766;28;20220;-79
2023/09/29 01:56:56;;;;;;;5.63;5.13;;;;;;;;;;10330522;28;20212;-79
2023/09/29 02:01:57;;;;;;;5.70;4.88;;;;;;;;;;10346778;28;20698;-79
2023/09/29 02:06:58;;;;;;;4.78;4.55;;;;;;;;;;10346262;28;20224;-79
2023/09/29 02:12:01;;;;;;;6.63;5.38;;;;;;;;;;10343307;28;20228;-79
2023/09/29 02:17:04;;;;;;;5.68;5.15;;;;;;;;;;10328621;28;20244;-79
2023/09/29 02:22:06;;;;;;;5.93;5.28;;;;;;;;;;10349960;28;20212;-79
2023/09/29 02:27:07;;;;;;;5.60;5.15;;;;;;;;;;10333946;28;20235;-79
2023/09/29 02:32:08;;;;;;;7.68;4.95;;;;;;;;;;10350832;28;20740;-79
2023/09/29 02:37:09;;;;;;;6.72;5.80;;;;;;;;;;10345910;28;20208;-79
2023/09/29 02:42:10;;;;;;;5.63;5.03;;;;;;;;;;10352367;28;20223;-79
2023/09/29 02:47:11;;;;;;;6.30;5.75;;;;;;;;;;10348059;28;20216;-79
2023/09/29 02:52:12;;;;;;;5.63;5.15;;;;;;;;;;10357481;28;20220;-80
2023/09/29 02:57:14;;;;;;;6.10;5.50;;;;;;;;;;10363895;28;20231;-80
2023/09/29 03:02:15;;;;;;;5.43;5.03;;;;;;;;;;10330775;28;21490;-80
2023/09/29 03:07:16;;;;;;;5.45;5.00;;;;;;;;;;10347032;28;20285;-79
2023/09/29 03:12:17;;;;;;;5.38;4.97;;;;;;;;;;10350774;28;20216;-80
2023/09/29 03:17:18;;;;;;;9.30;5.45;;;;;;;;;;10349452;28;20730;-79
2023/09/29 03:22:19;;;;;;;5.78;5.25;;;;;;;;;;10352326;28;20247;-79
2023/09/29 03:27:20;;;;;;;7.00;5.35;;;;;;;;;;10356162;28;20227;-79
2023/09/29 03:32:21;;;;;;;5.05;4.70;;;;;;;;;;10338658;28;20220;-79
2023/09/29 03:37:23;;;;;;;6.03;4.88;;;;;;;;;;10355904;28;20693;-78
2023/09/29 03:42:24;;;;;;;5.78;5.22;;;;;;;;;;10353244;28;20278;-79
2023/09/29 03:47:25;;;;;;;5.32;4.97;;;;;;;;;;10352607;28;20269;-80
2023/09/29 03:52:26;;;;;;;5.50;5.10;;;;;;;;;;10356421;28;20277;-78
2023/09/29 03:57:27;;;;;;;5.72;5.18;;;;;;;;;;10338976;28;20239;-79
2023/09/29 04:02:31;;;;;;;5.32;4.68;;;;;;;;;;10357080;28;20240;-78
2023/09/29 04:07:34;;;;;;;7.00;4.28;;;;;;;;;;10355660;28;20216;-79
2023/09/29 04:12:36;;;;;;;5.13;4.75;;;;;;;;;;10370134;28;20226;-79
2023/09/29 04:17:37;;;;;;;6.03;5.47;;;;;;;;;;10356694;28;20212;-79
2023/09/29 04:22:38;;;;;;;5.60;5.10;;;;;;;;;;10356598;28;20220;-80
2023/09/29 04:27:39;;;;;;;5.70;5.20;;;;;;;;;;10358080;28;20300;-80
2023/09/29 04:32:41;;;;;;;5.55;5.03;;;;;;;;;;10333634;28;20215;-80
2023/09/29 04:37:42;;;;;;;5.03;4.63;;;;;;;;;;10355169;28;20236;-80
2023/09/29 04:42:43;;;;;;;5.32;4.82;;;;;;;;;;10338306;28;20213;-79
2023/09/29 04:47:44;;;;;;;5.35;4.97;;;;;;;;;;10329616;28;20208;-80
2023/09/29 04:52:45;;;;;;;6.63;5.28;;;;;;;;;;10336260;28;20274;-79
2023/09/29 04:57:46;;;;;;;5.95;5.07;;;;;;;;;;10332612;28;20289;-79
2023/09/29 05:02:47;;;;;;;5.57;5.10;;;;;;;;;;10330219;28;20684;-79
2023/09/29 05:07:48;;;;;;;5.50;5.10;;;;;;;;;;10325735;28;20212;-80
2023/09/29 05:12:49;;;;;;;6.82;6.13;;;;;;;;;;10347116;28;20223;-79
2023/09/29 05:17:50;;;;;;;7.38;5.82;;;;;;;;;;10338890;28;20219;-79
2023/09/29 05:22:51;;;;;;;5.70;5.30;;;;;;;;;;10342026;28;20959;-80
2023/09/29 05:27:52;;;;;;;6.13;5.47;;;;;;;;;;10345062;28;20232;-81
2023/09/29 05:32:54;;;;;;;6.43;5.68;;;;;;;;;;10342288;28;20219;-79
2023/09/29 05:37:55;;;;;;;6.90;6.30;;;;;;;;;;10319412;28;20211;-80
2023/09/29 05:42:56;;;;;;;12.82;6.75;;;;;;;;;;10358605;28;20224;-79
2023/09/29 05:47:57;;;;;;;7.45;6.75;;;;;;;;;;10329524;28;20756;-80
2023/09/29 05:52:58;;;;;;;7.45;6.82;;;;;;;;;;10331636;28;20240;-79
2023/09/29 05:57:59;;;;;;;7.47;6.78;;;;;;;;;;10346298;28;20226;-78
2023/09/29 06:03:00;;;;;;;9.25;6.72;;;;;;;;;;10332287;28;20705;-78
2023/09/29 06:08:01;;;;;;;7.35;6.75;;;;;;;;;;10343075;28;20278;-77
2023/09/29 06:13:03;;;;;;;7.30;6.70;;;;;;;;;;10340077;28;20212;-77
2023/09/29 06:18:04;;;;;;;6.63;5.68;;;;;;;;;;10347549;28;20211;-78
2023/09/29 06:23:05;;;;;;;7.75;5.63;;;;;;;;;;10352358;28;20235;-79
2023/09/29 06:28:06;;;;;;;6.00;5.32;;;;;;;;;;10344158;28;20263;-78
2023/09/29 06:33:07;;;;;;;6.00;5.32;;;;;;;;;;10346447;28;20266;-78
2023/09/29 06:38:08;;;;;;;5.68;5.28;;;;;;;;;;10345868;28;20366;-78
2023/09/29 06:43:11;;;;;;;6.22;5.72;;;;;;;;;;10355446;28;20239;-78
2023/09/29 06:48:12;;;;;;;8.70;6.55;;;;;;;;;;10341555;28;20223;-78
2023/09/29 06:53:13;;;;;;;6.72;6.13;;;;;;;;;;10341931;28;20216;-79
2023/09/29 06:58:14;;;;;;;6.07;5.57;;;;;;;;;;10344089;28;20839;-79
2023/09/29 07:03:15;;;;;;;9.20;6.03;;;;;;;;;;10343812;28;20216;-78
2023/09/29 07:08:16;;;;;;;5.47;5.18;;;;;;;;;;10339183;28;20215;-78
2023/09/29 07:13:18;;;;;;;6.10;5.10;;;;;;;;;;10345388;28;20729;-79
2023/09/29 07:18:21;;;;;;;6.82;5.43;;;;;;;;;;10327882;28;20216;-78
2023/09/29 07:23:23;;;;;;;8.13;5.13;;;;;;;;;;10338335;28;20223;-79
2023/09/29 07:28:24;;;;;;;4.53;4.18;;;;;;;;;;10339822;28;20230;-79
2023/09/29 07:33:25;;;;;;;4.82;4.43;;;;;;;;;;10351153;28;20215;-79
2023/09/29 07:38:26;;;;;;;5.38;5.03;;;;;;;;;;10341323;28;20219;-79
2023/09/29 07:43:27;;;;;;;4.82;4.43;;;;;;;;;;10349659;28;20863;-79
2023/09/29 07:48:28;;;;;;;5.43;4.50;;;;;;;;;;10340578;28;20231;-78
2023/09/29 07:53:29;;;;;;;5.45;4.93;;;;;;;;;;10332553;28;20370;-80
2023/09/29 07:58:30;;;;;;;5.22;4.85;;;;;;;;;;10329977;28;21462;-79
2023/09/29 08:03:31;;;;;;;4.93;4.63;;;;;;;;;;10347629;28;20632;-81
2023/09/29 08:08:32;;;;;;;5.80;4.45;;;;;;;;;;10358606;28;20277;-80
2023/09/29 08:13:34;;;;;;;7.32;4.60;;;;;;;;;;10338121;28;20286;-80
2023/09/29 08:18:35;;;;;;;4.45;4.00;;;;;;;;;;10361063;28;20267;-79
2023/09/29 08:23:37;;;;;;;6.47;4.28;;;;;;;;;;10357832;28;20220;-80
2023/09/29 08:28:38;;;;;;;4.25;3.92;;;;;;;;;;10358139;28;20231;-80
2023/09/29 08:33:39;;;;;;;4.32;4.00;;;;;;;;;;10355724;28;20862;-80
2023/09/29 08:38:40;;;;;;;4.30;4.00;;;;;;;;;;10363926;28;20222;-80
2023/09/29 08:43:43;;;;;;;4.03;3.92;;;;;;;;;;10353787;28;20349;-80
2023/09/29 08:48:44;;;;;;;3.88;3.67;;;;;;;;;;10352729;28;20344;-81
2023/09/29 08:53:45;;;;;;;4.15;3.95;;;;;;;;;;10349744;28;20212;-79
2023/09/29 08:58:46;;;;;;;4.20;3.75;;;;;;;;;;10348809;28;20271;-80
2023/09/29 09:03:47;;;;;;;7.38;4.13;;;;;;;;;;10330541;28;20215;-79
2023/09/29 09:08:52;;;;;;;3.55;3.35;;;;;;;;;;10359051;28;20219;-80
2023/09/29 09:13:59;;;;;;;4.40;3.90;;;;;;;;;;10347598;28;20227;-79
2023/09/29 09:19:10;;;;;;;3.67;3.47;;;;;;;;;;10346572;28;20216;-80
2023/09/29 09:24:21;;;;;;;8.88;4.75;;;;;;;;;;10349493;28;20705;-80
2023/09/29 09:29:22;;;;;;;4.32;3.75;;;;;;;;;;10348369;28;20223;-79
2023/09/29 09:34:36;;;;;;;4.43;3.47;;;;;;;;;;10330249;28;20223;-79
2023/09/29 09:39:38;;;;;;;4.22;3.92;;;;;;;;;;10348667;28;20303;-80
2023/09/29 09:44:41;;;;;;;4.43;3.50;;;;;;;;;;10334472;28;20583;-80
2023/09/29 09:49:47;;;;;;;3.40;3.13;;;;;;;;;;10348899;28;20220;-80
2023/09/29 09:54:49;;;;;;;3.38;3.15;;;;;;;;;;10356477;28;20212;-79
2023/09/29 09:59:51;;;;;;;27.85;5.10;;;;;;;;;;10350012;28;20217;-78
2023/09/29 10:04:54;;;;;;;3.67;3.47;;;;;;;;;;10356841;28;20220;-78
2023/09/29 10:09:55;;;;;;;3.60;3.40;;;;;;;;;;10342005;28;20392;-78
2023/09/29 10:14:56;;;;;;;3.85;3.60;;;;;;;;;;10348595;28;20208;-78
2023/09/29 10:19:57;;;;;;;4.13;3.25;;;;;;;;;;10349896;28;20298;-79
2023/09/29 10:24:59;;;;;;;3.38;3.28;;;;;;;;;;10347520;28;20832;-78
2023/09/29 10:30:16;;;;;;;4.78;3.65;;;;;;;;;;10344982;28;20232;-79
2023/09/29 10:35:20;;;;;;;3.75;3.60;;;;;;;;;;10330820;28;20825;-78
2023/09/29 10:40:22;;;;;;;4.10;3.80;;;;;;;;;;10350836;28;20225;-78
2023/09/29 10:45:36;;;;;;;3.15;3.05;;;;;;;;;;10323951;28;20803;-78
2023/09/29 10:50:38;;;;;;;2.90;2.80;;;;;;;;;;10386866;28;20705;-80
2023/09/29 10:55:43;;;;;;;3.50;3.22;;;;;;;;;;10401795;28;20224;-80
2023/09/29 11:00:49;;;;;;;3.22;2.90;;;;;;;;;;10392213;28;20211;-82
2023/09/29 11:05:51;;;;;;;3.03;2.83;;;;;;;;;;10384970;28;20215;-79
2023/09/29 11:10:56;;;;;;;4.97;2.65;;;;;;;;;;10412077;28;20229;-81
2023/09/29 11:15:58;;;;;;;2.78;2.58;;;;;;;;;;10390832;28;20419;-82
2023/09/29 11:21:03;;;;;;;3.47;2.20;;;;;;;;;;10365510;28;20203;-79
2023/09/29 11:26:09;;;;;;;3.10;2.30;;;;;;;;;;10394835;28;20671;-80
2023/09/29 11:31:14;;;;;;;4.13;2.40;;;;;;;;;;10375032;28;20504;-80
2023/09/29 11:36:17;;;;;;;2.13;2.05;;;;;;;;;;10402660;28;20216;-78
2023/09/29 11:41:18;;;;;;;4.72;2.70;;;;;;;;;;10360990;28;20210;-78
2023/09/29 11:46:20;;;;;;;2.45;2.35;;;;;;;;;;10411729;28;20252;-79
2023/09/29 11:51:21;;;;;;;2.38;2.28;;;;;;;;;;10411262;28;20308;-77
2023/09/29 11:56:22;;;;;;;2.92;2.83;;;;;;;;;;10400086;28;20805;-78
2023/09/29 12:01:26;;;;;;;3.60;2.72;;;;;;;;;;10394512;28;20218;-77
2023/09/29 12:06:27;;;;;;;2.72;2.53;;;;;;;;;;10389408;28;20429;-78
2023/09/29 12:11:28;;;;;;;2.70;2.45;;;;;;;;;;10406814;28;20214;-77
2023/09/29 12:16:29;;;;;;;4.57;2.70;;;;;;;;;;10374525;28;20215;-78
2023/09/29 12:21:31;;;;;;;3.20;2.90;;;;;;;;;;10389113;28;20218;-77
2023/09/29 12:26:32;;;;;;;2.70;2.60;;;;;;;;;;10410662;28;20310;-78
2023/09/29 12:31:33;;;;;;;2.65;2.42;;;;;;;;;;10416410;28;20230;-79
2023/09/29 12:36:34;;;;;;;2.25;2.15;;;;;;;;;;10404159;28;20207;-81
2023/09/29 12:41:37;;;;;;;2.08;2.05;;;;;;;;;;10411526;28;20215;-79
2023/09/29 12:46:38;;;;;;;1.88;1.77;;;;;;;;;;10417960;28;20231;-81
2023/09/29 12:51:39;;;;;;;2.55;2.15;;;;;;;;;;10395145;28;20238;-81
2023/09/29 12:56:41;;;;;;;2.72;2.53;;;;;;;;;;10400462;28;20222;-78
2023/09/29 13:01:43;;;;;;;1.70;1.70;;;;;;;;;;10388815;28;20733;-80
2023/09/29 13:06:44;;;;;;;2.45;2.25;;;;;;;;;;10399583;28;20210;-79
2023/09/29 13:11:48;;;;;;;2.30;2.20;;;;;;;;;;10396225;28;20330;-79
2023/09/29 13:16:49;;;;;;;3.25;2.03;;;;;;;;;;10391109;28;20211;-80
2023/09/29 13:21:52;;;;;;;3.00;2.88;;;;;;;;;;10405109;28;20235;-80
2023/09/29 13:26:53;;;;;;;2.20;2.10;;;;;;;;;;10404173;28;20970;-79
2023/09/29 13:31:54;;;;;;;2.30;2.20;;;;;;;;;;10421801;28;20238;-79
2023/09/29 13:36:56;;;;;;;4.20;2.20;;;;;;;;;;10392153;28;20305;-79
2023/09/29 13:41:57;;;;;;;2.83;2.63;;;;;;;;;;10421148;28;20694;-80
2023/09/29 13:46:58;;;;;;;2.40;2.20;;;;;;;;;;10412936;28;20216;-79
2023/09/29 13:51:59;;;;;;;2.25;2.05;;;;;;;;;;10395792;28;20708;-79
2023/09/29 13:57:02;;;;;;;3.33;1.92;;;;;;;;;;10393135;28;20406;-80
2023/09/29 14:02:07;;;;;;;2.20;2.10;;;;;;;;;;10394200;28;20246;-79
2023/09/29 14:07:09;;;;;;;1.60;1.60;;;;;;;;;;10404197;28;20208;-79
2023/09/29 14:12:10;;;;;;;1.70;1.60;;;;;;;;;;10373920;28;20233;-79
2023/09/29 14:17:12;;;;;;;1.80;1.75;;;;;;;;;;10376626;28;20247;-81
2023/09/29 14:22:13;;;;;;;2.17;2.08;;;;;;;;;;10390148;28;20213;-80
2023/09/29 14:27:14;;;;;;;3.10;1.90;;;;;;;;;;10365302;28;20222;-80
2023/09/29 14:32:15;;;;;;;2.00;2.00;;;;;;;;;;10400057;28;20272;-81
2023/09/29 14:37:18;;;;;;;2.40;2.20;;;;;;;;;;10410094;28;20254;-80
2023/09/29 14:42:19;;;;;;;1.92;1.92;;;;;;;;;;10396758;28;20211;-80
2023/09/29 14:47:20;;;;;;;1.70;1.60;;;;;;;;;;10396878;28;20214;-81
2023/09/29 14:52:21;;;;;;;1.60;1.60;;;;;;;;;;10388668;28;20735;-81
2023/09/29 14:57:23;;;;;;;1.52;1.52;;;;;;;;;;10416695;28;20313;-80
2023/09/29 15:02:24;;;;;;;1.25;1.15;;;;;;;;;;10382306;28;20688;-79
2023/09/29 15:07:25;;;;;;;1.70;1.60;;;;;;;;;;10396109;28;20849;-81
2023/09/29 15:12:27;;;;;;;2.17;1.70;;;;;;;;;;10395799;28;20242;-81
2023/09/29 15:17:30;;;;;;;1.83;1.40;;;;;;;;;;10409550;28;20207;-79
2023/09/29 15:22:31;;;;;;;1.70;1.58;;;;;;;;;;10396712;28;20222;-80
2023/09/29 15:27:32;;;;;;;1.70;1.60;;;;;;;;;;10400267;28;20257;-81
2023/09/29 15:32:33;;;;;;;1.42;1.33;;;;;;;;;;10401492;28;20230;-80
2023/09/29 15:37:34;;;;;;;1.58;1.58;;;;;;;;;;10410097;28;20234;-80
2023/09/29 15:42:35;;;;;;;1.50;1.50;;;;;;;;;;10408796;28;20301;-78
2023/09/29 15:47:36;;;;;;;2.10;2.05;;;;;;;;;;10387309;28;20210;-79
2023/09/29 15:52:37;;;;;;;2.75;2.55;;;;;;;;;;10387314;28;20234;-79
2023/09/29 15:57:38;;;;;;;2.50;2.30;;;;;;;;;;10411012;28;20211;-78
2023/09/29 16:02:40;;;;;;;2.88;1.98;;;;;;;;;;10383106;28;20227;-78
2023/09/29 16:07:41;;;;;;;1.52;1.52;;;;;;;;;;10404222;28;20887;-75
2023/09/29 16:12:42;;;;;;;1.27;1.27;;;;;;;;;;10410389;28;20302;-76
2023/09/29 16:17:44;;;;;;;1.73;1.73;;;;;;;;;;10378037;28;20246;-76
2023/09/29 16:22:45;;;;;;;1.80;1.75;;;;;;;;;;10398076;28;20249;-76
2023/09/29 16:27:47;;;;;;;2.08;1.73;;;;;;;;;;10379790;28;20763;-75
2023/09/29 16:32:47;;;;;;;2.58;1.23;;;;;;;;;;10409202;28;21053;-74
2023/09/29 16:37:48;;;;;;;1.70;1.60;;;;;;;;;;10373922;28;20211;-76
2023/09/29 16:42:50;;;;;;;1.60;1.60;;;;;;;;;;10380982;28;20717;-76
2023/09/29 16:47:51;;;;;;;2.95;1.55;;;;;;;;;;10411577;28;20207;-79
2023/09/29 16:52:52;;;;;;;1.88;1.77;;;;;;;;;;10397817;28;20231;-76
2023/09/29 16:57:53;;;;;;;2.60;1.85;;;;;;;;;;10390358;28;20302;-77
2023/09/29 17:02:54;;;;;;;2.47;2.38;;;;;;;;;;10372486;28;20228;-77
2023/09/29 17:07:55;;;;;;;1.92;1.92;;;;;;;;;;10368974;28;20226;-77
2023/09/29 17:12:56;;;;;;;3.00;2.15;;;;;;;;;;10394997;28;20709;-78
2023/09/29 17:17:57;;;;;;;9.02;3.85;;;;;;;;;;10370119;28;20253;-76
2023/09/29 17:22:58;;;;;;;8.00;4.78;;;;;;;;;;10370482;28;20219;-77
2023/09/29 17:27:59;;;;;;;8.45;4.57;;;;;;;;;;10394085;28;20227;-77
2023/09/29 17:33:00;;;;;;;6.85;3.88;;;;;;;;;;10386693;28;20254;-75
2023/09/29 17:38:01;;;;;;;9.35;4.43;;;;;;;;;;10370497;28;20286;-77
2023/09/29 17:43:02;;;;;;;7.15;4.43;;;;;;;;;;10399646;28;20219;-78
2023/09/29 17:48:04;;;;;;;7.20;4.55;;;;;;;;;;10368832;28;20696;-77
2023/09/29 17:53:05;;;;;;;9.95;4.68;;;;;;;;;;10392826;28;20223;-78
2023/09/29 17:58:06;;;;;;;5.78;4.05;;;;;;;;;;10368188;28;20579;-77
2023/09/29 18:03:07;;;;;;;8.95;3.90;;;;;;;;;;10376075;28;20222;-74
2023/09/29 18:08:08;;;;;;;10.73;4.28;;;;;;;;;;10376557;28;20217;-77
2023/09/29 18:13:09;;;;;;;5.03;3.80;;;;;;;;;;10360070;28;20365;-77
2023/09/29 18:18:10;;;;;;;9.15;4.15;;;;;;;;;;10389040;28;20290;-78
2023/09/29 18:23:11;;;;;;;6.05;4.60;;;;;;;;;;10381846;28;20297;-78
2023/09/29 18:28:12;;;;;;;5.93;5.10;;;;;;;;;;10374282;28;20262;-78
2023/09/29 18:33:13;;;;;;;5.90;5.00;;;;;;;;;;10392904;28;20853;-80
2023/09/29 18:38:15;;;;;;;5.20;4.38;;;;;;;;;;10375318;28;20265;-78
2023/09/29 18:43:16;;;;;;;6.93;4.82;;;;;;;;;;10369772;28;20242;-81
2023/09/29 18:48:17;;;;;;;5.95;4.43;;;;;;;;;;10372572;28;20752;-79
2023/09/29 18:53:18;;;;;;;5.40;4.63;;;;;;;;;;10405591;28;20315;-84
2023/09/29 18:58:19;;;;;;;6.05;4.78;;;;;;;;;;10371410;28;20207;-80
2023/09/29 19:03:23;;;;;;;5.80;4.18;;;;;;;;;;10364777;28;20702;-82
2023/09/29 19:08:24;;;;;;;6.43;4.38;;;;;;;;;;10403596;28;20812;-79
2023/09/29 19:13:25;;;;;;;4.20;3.85;;;;;;;;;;10394276;28;20219;-80
2023/09/29 19:18:26;;;;;;;6.05;4.18;;;;;;;;;;10385126;28;20227;-78
2023/09/29 19:23:27;;;;;;;5.45;4.45;;;;;;;;;;10366120;28;20231;-78
2023/09/29 19:28:28;;;;;;;5.45;4.30;;;;;;;;;;10381035;28;20393;-79
2023/09/29 19:33:29;;;;;;;5.40;4.20;;;;;;;;;;10396733;28;20230;-78
2023/09/29 19:38:31;;;;;;;5.30;3.40;;;;;;;;;;10360245;28;20220;-80
2023/09/29 19:43:32;;;;;;;4.90;4.15;;;;;;;;;;10400345;28;20503;-79
2023/09/29 19:48:33;;;;;;;4.22;3.03;;;;;;;;;;10379579;28;20206;-82
2023/09/29 19:53:34;;;;;;;5.15;3.42;;;;;;;;;;10356215;28;20226;-79
2023/09/29 19:58:39;;;;;;;3.78;2.90;;;;;;;;;;10394584;28;20753;-78
2023/09/29 20:03:41;;;;;;;1.83;1.73;;;;;;;;;;10398610;28;21377;-79
2023/09/29 20:08:42;;;;;;;1.38;1.23;;;;;;;;;;10369004;28;20268;-78
2023/09/29 20:13:43;;;;;;;1.33;1.23;;;;;;;;;;10378921;28;20214;-80
2023/09/29 20:18:44;;;;;;;0.93;0.93;;;;;;;;;;10390860;28;20246;-77
2023/09/29 20:23:45;;;;;;;0.93;0.90;;;;;;;;;;10398334;28;20681;-78
2023/09/29 20:28:46;;;;;;;0.70;0.70;;;;;;;;;;10383111;28;20416;-76
2023/09/29 20:33:47;;;;;;;0.57;0.57;;;;;;;;;;10396200;28;20584;-78
2023/09/29 20:38:48;;;;;;;0.50;0.45;;;;;;;;;;10367174;28;20925;-78
2023/09/29 20:43:49;;;;;;;0.57;0.30;;;;;;;;;;10399051;28;21023;-79
2023/09/29 20:48:51;;;;;;;0.30;0.30;;;;;;;;;;10400954;28;20217;-78
2023/09/29 20:53:52;;;;;;;0.55;0.45;;;;;;;;;;10396428;28;20314;-77
2023/09/29 20:58:53;;;;;;;2.72;0.35;;;;;;;;;;10392763;28;20311;-78
2023/09/29 21:03:54;;;;;;;0.22;0.22;;;;;;;;;;10375831;28;20215;-78
2023/09/29 21:08:55;;;;;;;0.50;0.30;;;;;;;;;;10369754;28;20616;-78
2023/09/29 21:13:56;;;;;;;0.75;0.20;;;;;;;;;;10377858;28;20242;-81
2023/09/29 21:18:57;;;;;;;0.70;0.20;;;;;;;;;;10403953;28;20623;-76
2023/09/29 21:23:58;;;;;;;0.20;0.20;;;;;;;;;;10374389;28;20211;-75
2023/09/29 21:28:59;;;;;;;0.20;0.20;;;;;;;;;;10386937;28;20227;-77
2023/09/29 21:34:00;;;;;;;1.75;0.30;;;;;;;;;;10407665;28;20297;-76
2023/09/29 21:39:02;;;;;;;1.10;0.40;;;;;;;;;;10405422;28;20229;-75
2023/09/29 21:44:06;;;;;;;1.08;0.40;;;;;;;;;;10405700;28;20234;-76
2023/09/29 21:49:07;;;;;;;0.30;0.30;;;;;;;;;;10383619;28;20296;-75
2023/09/29 21:54:11;;;;;;;1.98;0.30;;;;;;;;;;10406808;28;20227;-76
2023/09/29 21:59:12;;;;;;;1.25;0.20;;;;;;;;;;10383172;28;20705;-76
2023/09/29 22:04:14;;;;;;;1.65;0.22;;;;;;;;;;10386407;28;20237;-77
2023/09/29 22:09:16;;;;;;;0.43;0.43;;;;;;;;;;10398672;28;20214;-76
2023/09/29 22:14:17;;;;;;;0.65;0.30;;;;;;;;;;10387767;28;20735;-77
2023/09/29 22:19:18;;;;;;;1.90;0.30;;;;;;;;;;10388718;28;20210;-75
2023/09/29 22:24:19;;;;;;;3.15;0.40;;;;;;;;;;10358726;28;20310;-77
2023/09/29 22:29:20;;;;;;;4.28;0.60;;;;;;;;;;10389198;28;20215;-77
2023/09/29 22:34:22;;;;;;;1.65;0.40;;;;;;;;;;10386816;28;20223;-78
2023/09/29 22:39:23;;;;;;;1.85;0.50;;;;;;;;;;10404792;28;20203;-77
2023/09/29 22:44:24;;;;;;;0.82;0.50;;;;;;;;;;10385213;28;20301;-78
2023/09/29 22:49:25;;;;;;;1.35;0.60;;;;;;;;;;10385990;28;20206;-80
2023/09/29 22:54:26;;;;;;;3.33;0.82;;;;;;;;;;10398820;28;20230;-76
2023/09/29 22:59:28;;;;;;;2.90;0.57;;;;;;;;;;10386642;28;20309;-77
2023/09/29 23:04:30;;;;;;;1.15;0.47;;;;;;;;;;10373255;28;20281;-78
2023/09/29 23:09:31;;;;;;;3.65;0.75;;;;;;;;;;10400755;28;20212;-77
2023/09/29 23:14:33;;;;;;;1.38;0.60;;;;;;;;;;10405372;28;20645;-78
2023/09/29 23:19:35;;;;;;;1.95;0.60;;;;;;;;;;10373844;28;20297;-81
2023/09/29 23:24:36;;;;;;;1.35;0.47;;;;;;;;;;10402183;28;20288;-77
2023/09/29 23:29:38;;;;;;;4.15;0.50;;;;;;;;;;10391397;28;20236;-78
2023/09/29 23:34:39;;;;;;;0.50;0.50;;;;;;;;;;10389660;28;20223;-78
2023/09/29 23:39:40;;;;;;;6.70;1.08;;;;;;;;;;10378018;28;20219;-77
2023/09/29 23:44:41;;;;;;;0.95;0.60;;;;;;;;;;10371152;28;20222;-75
2023/09/29 23:49:42;;;;;;;3.63;0.77;;;;;;;;;;10393274;28;20302;-78
2023/09/29 23:54:43;;;;;;;1.00;0.90;;;;;;;;;;10397604;28;20275;-79
2023/09/29 23:59:45;;;;;;;4.70;1.00;;;;;;;;;;10414778;28;20302;-77
